Alexander, New York
Current Conditions -  °F | °C
As of 12:54 AM on Tuesday 21 Oct 2014 (Local Time) from KBUF Reporting Station
Light Rain Light Rain  
Wind Chill: 50°   Ceiling: 1700
Heat Index: 50°   Visibility: 10mi
Dew Point: 47°   Wind: 12mph
Humidity: 89%   Direction: 200°SSW
Pressure: 29.8"   Gusts: NA
Location:  42.9°N, 78.26°W
Report Text: KBUF 210454Z 20010KT 10SM -RA BKN017 OVC027 10/08 A2980 RMK AO2 RAB24 SLP091 P0001 T01000083 401390050
Loading
Personal Weather Stations






























Interactive Weather Map
Tropical Storm Tracking
New forecast layout! Learn more

10-Day Weather Forecast

Advertisements
Track Severe Weather on mobile